Terminal Aerodrome Forecast
Issued by NWS Huntsville, AL

Home | Current Version | Previous Version | Text Only | Print | Product List | Glossary On
Versions: 1 2 3 4 5 6 7 8 9 10 11 12 13 14 15 16 17 18 19 20 21 22 23 24 25 26 27 28 29 30 31 32 33
000
FTUS44 KHUN 301253 AAA
TAFMSL
TAF AMD
KMSL 301253Z 3013/3112 12004KT P6SM -RA SCT025 BKN080
     FM301700 11006KT 6SM -RA BR SCT030 OVC080
     FM310100 VRB04KT P6SM SCT010 OVC100
     FM310700 VRB03KT 4SM BR SCT009 BKN030=

USA.gov is the U.S. government's official web portal to all federal, state and local government web resources and services.